Time;durP1;ratioP1;P1;durP2;ratioP2;P2;SDS_P1;SDS_P2;PMS_P1;PMS_P2;Temp;Humidity;BMP_temperature;BMP_pressure;BME280_temperature;BME280_humidity;BME280_pressure;Samples;Min_cycle;Max_cycle;Signal;HPM_P1;HPM_P2
2022/09/09 00:00:25;;;;;;;27.50;12.53;;;;;;;;;;5076356;28;20776;-76
2022/09/09 00:03:11;;;;;;;15.67;10.83;;;;;;;;;;5075413;28;20521;-75
2022/09/09 00:05:56;;;;;;;17.23;10.70;;;;;;;;;;5066623;28;20967;-75
2022/09/09 00:08:44;;;;;;;15.53;10.40;;;;;;;;;;5076719;28;20622;-76
2022/09/09 00:11:20;;;;;;;17.60;12.90;;;;;;;;;;5076595;28;20455;-76
2022/09/09 00:13:56;;;;;;;15.23;11.83;;;;;;;;;;5077625;28;20456;-76
2022/09/09 00:16:31;;;;;;;19.53;11.03;;;;;;;;;;5077218;28;20475;-75
2022/09/09 00:19:06;;;;;;;15.43;10.40;;;;;;;;;;5076699;28;20789;-76
2022/09/09 00:21:38;;;;;;;14.53;10.70;;;;;;;;;;5077306;28;20456;-76
2022/09/09 00:24:13;;;;;;;13.77;10.70;;;;;;;;;;5076186;28;20494;-75
2022/09/09 00:26:48;;;;;;;14.00;10.20;;;;;;;;;;5076995;28;20773;-76
2022/09/09 00:29:26;;;;;;;17.53;11.13;;;;;;;;;;5065747;28;20456;-74
2022/09/09 00:32:09;;;;;;;16.20;11.10;;;;;;;;;;5074684;28;20530;-74
2022/09/09 00:34:45;;;;;;;15.20;11.10;;;;;;;;;;5076749;28;20444;-75
2022/09/09 00:37:22;;;;;;;18.33;12.90;;;;;;;;;;5075639;28;20565;-76
2022/09/09 00:40:13;;;;;;;;;;;;;;;;;;;;;
2022/09/09 00:42:43;;;;;;;18.60;11.80;;;;;;;;;;5075472;28;20921;-76
2022/09/09 00:45:20;;;;;;;18.90;11.57;;;;;;;;;;5077849;28;20483;-76
2022/09/09 00:53:59;;;;;;;20.40;12.73;;;;;;;;;;5073851;28;20535;-76
2022/09/09 00:56:28;;;;;;;17.60;11.67;;;;;;;;;;5077257;28;20539;-76
2022/09/09 00:59:02;;;;;;;19.93;12.83;;;;;;;;;;5076824;28;20478;-76
2022/09/09 01:01:29;;;;;;;43.17;13.97;;;;;;;;;;5077447;28;20461;-76
2022/09/09 01:04:02;;;;;;;34.30;13.60;;;;;;;;;;5077492;28;20461;-76
2022/09/09 01:06:31;;;;;;;29.47;12.33;;;;;;;;;;5077766;28;20499;-76
2022/09/09 01:09:13;;;;;;;29.33;13.20;;;;;;;;;;5077598;28;20471;-76
2022/09/09 01:11:45;;;;;;;25.90;14.17;;;;;;;;;;5077003;28;20456;-76
2022/09/09 01:14:21;;;;;;;29.83;14.10;;;;;;;;;;5076855;28;20804;-76
2022/09/09 01:16:49;;;;;;;31.80;11.90;;;;;;;;;;5076412;28;20471;-77
2022/09/09 01:19:21;;;;;;;23.90;12.40;;;;;;;;;;5076786;28;20457;-77
2022/09/09 01:21:54;;;;;;;23.73;13.27;;;;;;;;;;5077342;28;20543;-77
2022/09/09 01:24:28;;;;;;;20.23;12.20;;;;;;;;;;5075876;28;20947;-76
2022/09/09 01:27:02;;;;;;;27.63;13.27;;;;;;;;;;5072927;28;20544;-77
2022/09/09 01:29:31;;;;;;;21.00;13.23;;;;;;;;;;5068753;28;20462;-75
2022/09/09 01:32:06;;;;;;;17.17;10.07;;;;;;;;;;5076565;28;20437;-76
2022/09/09 01:34:37;;;;;;;18.10;10.83;;;;;;;;;;5075469;28;20550;-76
2022/09/09 01:37:09;;;;;;;17.43;11.70;;;;;;;;;;5078346;28;20514;-76
2022/09/09 01:39:40;;;;;;;18.23;11.63;;;;;;;;;;5076518;28;20461;-75
2022/09/09 01:42:12;;;;;;;22.83;12.07;;;;;;;;;;5097962;28;20510;-76
2022/09/09 01:44:39;;;;;;;21.27;11.17;;;;;;;;;;5079010;28;21125;-75
2022/09/09 01:47:07;;;;;;;19.10;12.30;;;;;;;;;;5067605;28;20545;-75
2022/09/09 01:49:43;;;;;;;20.47;10.80;;;;;;;;;;5078448;28;20453;-75
2022/09/09 01:52:11;;;;;;;13.87;10.77;;;;;;;;;;5076732;28;20475;-76
2022/09/09 01:54:38;;;;;;;22.30;10.67;;;;;;;;;;5075630;28;20647;-75
2022/09/09 01:57:13;;;;;;;24.90;11.37;;;;;;;;;;5076148;28;20485;-76
2022/09/09 02:00:06;;;;;;;16.43;10.83;;;;;;;;;;5075165;28;20459;-75
2022/09/09 02:02:43;;;;;;;15.07;9.70;;;;;;;;;;5059573;28;20555;-76
2022/09/09 02:05:17;;;;;;;16.93;10.67;;;;;;;;;;5075210;28;20622;-76
2022/09/09 02:07:47;;;;;;;15.57;10.07;;;;;;;;;;5075948;28;20539;-76
2022/09/09 02:10:17;;;;;;;14.10;9.83;;;;;;;;;;5076045;28;20464;-75
2022/09/09 02:12:47;;;;;;;13.80;9.47;;;;;;;;;;5076273;28;20765;-76
2022/09/09 02:15:17;;;;;;;14.87;10.67;;;;;;;;;;5075368;28;20503;-76
2022/09/09 02:17:47;;;;;;;15.67;10.17;;;;;;;;;;5075689;28;20451;-76
2022/09/09 02:20:15;;;;;;;13.77;9.63;;;;;;;;;;5072109;28;20468;-76
2022/09/09 02:22:45;;;;;;;15.63;10.57;;;;;;;;;;5072869;28;20547;-75
2022/09/09 02:25:14;;;;;;;15.00;9.27;;;;;;;;;;5075547;28;20488;-76
2022/09/09 02:27:43;;;;;;;14.00;9.83;;;;;;;;;;5076030;28;20539;-76
2022/09/09 02:30:11;;;;;;;14.20;10.13;;;;;;;;;;5075565;28;20525;-76
2022/09/09 02:32:46;;;;;;;15.13;9.60;;;;;;;;;;5075615;28;20482;-76
2022/09/09 02:35:16;;;;;;;13.33;9.20;;;;;;;;;;5076178;28;20474;-75
2022/09/09 02:37:48;;;;;;;11.90;8.90;;;;;;;;;;5078095;28;20468;-75
2022/09/09 02:40:17;;;;;;;16.57;9.70;;;;;;;;;;5077634;28;20897;-76
2022/09/09 02:42:45;;;;;;;15.83;10.77;;;;;;;;;;5076510;28;20532;-76
2022/09/09 02:45:15;;;;;;;12.47;9.80;;;;;;;;;;5076718;28;20960;-76
2022/09/09 02:47:48;;;;;;;13.93;9.60;;;;;;;;;;5075299;28;20452;-75
2022/09/09 02:50:19;;;;;;;14.73;9.67;;;;;;;;;;5075147;28;20468;-75
2022/09/09 02:52:52;;;;;;;12.97;9.43;;;;;;;;;;5074549;28;20456;-75
2022/09/09 02:55:22;;;;;;;13.57;9.87;;;;;;;;;;5076521;28;20456;-76
2022/09/09 02:57:50;;;;;;;14.67;9.87;;;;;;;;;;5076004;28;20463;-75
2022/09/09 03:00:24;;;;;;;13.43;9.33;;;;;;;;;;5074341;28;20453;-76
2022/09/09 03:02:51;;;;;;;14.93;9.57;;;;;;;;;;5075080;28;20514;-76
2022/09/09 03:05:20;;;;;;;13.37;10.30;;;;;;;;;;5075055;28;20570;-75
2022/09/09 03:07:47;;;;;;;12.17;8.80;;;;;;;;;;5075890;28;20944;-75
2022/09/09 03:10:14;;;;;;;13.30;8.77;;;;;;;;;;5074112;28;20441;-75
2022/09/09 03:12:42;;;;;;;13.80;10.00;;;;;;;;;;5075732;28;20894;-76
2022/09/09 03:15:09;;;;;;;13.20;9.70;;;;;;;;;;5075239;28;20468;-76
2022/09/09 03:17:39;;;;;;;14.53;10.30;;;;;;;;;;5074723;28;20449;-75
2022/09/09 03:20:09;;;;;;;13.10;8.83;;;;;;;;;;5075191;28;20452;-75
2022/09/09 03:22:37;;;;;;;12.80;8.50;;;;;;;;;;5075827;28;20447;-76
2022/09/09 03:25:08;;;;;;;13.63;9.70;;;;;;;;;;5075110;28;20495;-75
2022/09/09 03:27:35;;;;;;;13.23;9.57;;;;;;;;;;5074429;28;20463;-77
2022/09/09 03:30:03;;;;;;;14.37;9.40;;;;;;;;;;5074720;28;20456;-75
2022/09/09 03:32:31;;;;;;;15.10;8.77;;;;;;;;;;5073788;28;20799;-75
2022/09/09 03:34:58;;;;;;;11.63;8.63;;;;;;;;;;5073631;28;20566;-75
2022/09/09 03:37:25;;;;;;;11.70;9.00;;;;;;;;;;5073803;28;20448;-74
2022/09/09 03:39:54;;;;;;;15.03;8.57;;;;;;;;;;5072626;28;20456;-74
2022/09/09 03:42:24;;;;;;;12.97;10.17;;;;;;;;;;5073819;28;20475;-74
2022/09/09 03:44:52;;;;;;;12.40;8.90;;;;;;;;;;5054739;28;20446;-74
2022/09/09 03:47:21;;;;;;;12.13;8.60;;;;;;;;;;5073629;28;20554;-74
2022/09/09 03:49:49;;;;;;;11.90;9.37;;;;;;;;;;5072436;28;20551;-74
2022/09/09 03:52:21;;;;;;;9.73;7.80;;;;;;;;;;5073348;28;20596;-74
2022/09/09 03:54:48;;;;;;;13.00;8.93;;;;;;;;;;5072242;28;20472;-74
2022/09/09 03:57:16;;;;;;;12.60;8.90;;;;;;;;;;5072388;28;20973;-74
2022/09/09 03:59:43;;;;;;;15.70;8.70;;;;;;;;;;5073368;28;20452;-74
2022/09/09 04:02:11;;;;;;;10.77;7.57;;;;;;;;;;5073246;28;20454;-76
2022/09/09 04:04:38;;;;;;;13.07;9.47;;;;;;;;;;5076423;28;20453;-75
2022/09/09 04:07:08;;;;;;;10.37;8.50;;;;;;;;;;5076019;28;20488;-76
2022/09/09 04:09:35;;;;;;;10.40;7.83;;;;;;;;;;5076017;28;20455;-75
2022/09/09 04:12:02;;;;;;;10.67;7.20;;;;;;;;;;5075721;28;20928;-75
2022/09/09 04:14:30;;;;;;;10.77;8.40;;;;;;;;;;5075521;28;20532;-74
2022/09/09 04:16:59;;;;;;;11.30;8.60;;;;;;;;;;5075132;28;20468;-74
2022/09/09 04:19:26;;;;;;;12.37;8.93;;;;;;;;;;5074354;28;20517;-75
2022/09/09 04:21:53;;;;;;;10.77;6.70;;;;;;;;;;5074847;28;20464;-75
2022/09/09 04:24:21;;;;;;;10.63;8.03;;;;;;;;;;5074369;28;20453;-75
2022/09/09 04:26:48;;;;;;;9.90;7.30;;;;;;;;;;5075015;28;20523;-75
2022/09/09 04:29:17;;;;;;;9.70;8.20;;;;;;;;;;5075307;28;20448;-75
2022/09/09 04:31:45;;;;;;;9.40;6.93;;;;;;;;;;5074183;28;20495;-75
2022/09/09 04:34:13;;;;;;;11.43;8.00;;;;;;;;;;5074584;28;20469;-75
2022/09/09 04:36:40;;;;;;;9.30;6.77;;;;;;;;;;5072703;28;20452;-75
2022/09/09 04:39:07;;;;;;;8.93;7.47;;;;;;;;;;5074621;28;20451;-76
2022/09/09 04:41:37;;;;;;;10.00;7.43;;;;;;;;;;5074440;28;20457;-76
2022/09/09 04:44:05;;;;;;;10.03;6.97;;;;;;;;;;5074689;28;20453;-76
2022/09/09 04:46:34;;;;;;;9.17;6.40;;;;;;;;;;5073461;28;20515;-76
2022/09/09 04:49:02;;;;;;;9.63;7.63;;;;;;;;;;5073399;28;20444;-76
2022/09/09 04:51:31;;;;;;;7.50;5.90;;;;;;;;;;5063897;28;21061;-75
2022/09/09 04:53:58;;;;;;;10.97;6.03;;;;;;;;;;5052838;28;20469;-75
2022/09/09 04:56:28;;;;;;;9.30;7.20;;;;;;;;;;5070906;28;20456;-75
2022/09/09 04:58:58;;;;;;;7.50;6.50;;;;;;;;;;5073400;28;20457;-75
2022/09/09 05:01:25;;;;;;;9.67;6.43;;;;;;;;;;5071849;28;20460;-75
2022/09/09 05:03:54;;;;;;;8.80;6.30;;;;;;;;;;5074183;28;20926;-75
2022/09/09 05:06:22;;;;;;;10.47;6.17;;;;;;;;;;5073304;28;20491;-75
2022/09/09 05:08:50;;;;;;;8.73;6.77;;;;;;;;;;5085079;28;20460;-75
2022/09/09 05:11:18;;;;;;;6.43;5.40;;;;;;;;;;5083048;28;20559;-75
2022/09/09 05:13:46;;;;;;;6.60;5.87;;;;;;;;;;5093337;28;20919;-75
2022/09/09 05:16:14;;;;;;;7.70;5.77;;;;;;;;;;5074169;28;20471;-75
2022/09/09 05:18:43;;;;;;;7.57;5.67;;;;;;;;;;5071430;28;20460;-76
2022/09/09 05:21:17;;;;;;;7.33;5.67;;;;;;;;;;5072729;28;20475;-76
2022/09/09 05:23:45;;;;;;;7.70;6.30;;;;;;;;;;5072515;28;20445;-76
2022/09/09 05:26:15;;;;;;;7.47;5.80;;;;;;;;;;5070473;28;20529;-75
2022/09/09 05:28:46;;;;;;;7.37;4.73;;;;;;;;;;5071263;28;20882;-74
2022/09/09 05:31:15;;;;;;;5.53;4.23;;;;;;;;;;5069286;28;20464;-74
2022/09/09 05:33:46;;;;;;;7.33;4.97;;;;;;;;;;5067428;28;20474;-74
2022/09/09 05:36:23;;;;;;;8.13;5.47;;;;;;;;;;5070842;28;20849;-73
2022/09/09 05:38:54;;;;;;;5.80;4.90;;;;;;;;;;5067221;28;20464;-74
2022/09/09 05:41:31;;;;;;;7.60;5.10;;;;;;;;;;5071120;28;20734;-75
2022/09/09 05:44:00;;;;;;;5.27;4.40;;;;;;;;;;5069206;28;20452;-75
2022/09/09 05:46:28;;;;;;;7.10;4.73;;;;;;;;;;5085538;28;21119;-75
2022/09/09 05:49:01;;;;;;;8.03;5.33;;;;;;;;;;5091511;28;20479;-75
2022/09/09 05:51:30;;;;;;;5.50;4.27;;;;;;;;;;5093927;28;20459;-75
2022/09/09 05:53:59;;;;;;;7.23;4.07;;;;;;;;;;5068623;28;21092;-76
2022/09/09 05:56:32;;;;;;;5.07;3.60;;;;;;;;;;5062988;28;20464;-75
2022/09/09 05:59:00;;;;;;;4.90;4.13;;;;;;;;;;5070919;28;20452;-76
2022/09/09 06:01:32;;;;;;;7.53;3.60;;;;;;;;;;5069578;28;20649;-75
2022/09/09 06:04:00;;;;;;;5.87;4.13;;;;;;;;;;5069905;28;20445;-76
2022/09/09 06:06:29;;;;;;;7.43;4.27;;;;;;;;;;5061728;28;20637;-74
2022/09/09 06:09:13;;;;;;;4.40;3.33;;;;;;;;;;5071337;28;20529;-75
2022/09/09 06:11:40;;;;;;;4.90;3.50;;;;;;;;;;5072673;28;20491;-75
2022/09/09 06:14:17;;;;;;;5.50;3.10;;;;;;;;;;5067922;28;20453;-75
2022/09/09 06:16:57;;;;;;;3.53;2.97;;;;;;;;;;5072078;28;20633;-73
2022/09/09 06:19:28;;;;;;;7.57;3.20;;;;;;;;;;5067710;28;20800;-75
2022/09/09 06:22:06;;;;;;;5.17;2.90;;;;;;;;;;5074969;28;20460;-74
2022/09/09 06:24:50;;;;;;;4.93;3.00;;;;;;;;;;5068626;28;21381;-72
2022/09/09 06:27:21;;;;;;;4.03;2.63;;;;;;;;;;5060746;28;20544;-74
2022/09/09 06:30:03;;;;;;;4.67;2.80;;;;;;;;;;5072533;28;20488;-74
2022/09/09 06:33:07;;;;;;;3.03;2.53;;;;;;;;;;5070166;28;20535;-74
2022/09/09 06:35:43;;;;;;;4.97;3.80;;;;;;;;;;4990493;28;20464;-75
2022/09/09 06:38:10;;;;;;;4.50;2.73;;;;;;;;;;4990901;28;20897;-74
2022/09/09 06:43:37;;;;;;;4.30;2.90;;;;;;;;;;4976465;28;20547;-75
2022/09/09 06:46:11;;;;;;;5.83;3.87;;;;;;;;;;5056828;28;20487;-74
2022/09/09 06:48:45;;;;;;;7.03;3.00;;;;;;;;;;5071140;28;20530;-75
2022/09/09 06:51:17;;;;;;;3.37;2.87;;;;;;;;;;5071076;28;20494;-74
2022/09/09 06:53:57;;;;;;;8.00;4.57;;;;;;;;;;5070930;28;20535;-74
2022/09/09 06:56:49;;;;;;;4.70;3.40;;;;;;;;;;5071206;28;20471;-75
2022/09/09 06:59:26;;;;;;;3.67;2.73;;;;;;;;;;5048931;28;20468;-74
2022/09/09 07:01:54;;;;;;;4.23;3.27;;;;;;;;;;5073943;28;20497;-74
2022/09/09 07:04:23;;;;;;;11.83;2.70;;;;;;;;;;5073783;28;20453;-74
2022/09/09 07:06:58;;;;;;;6.23;2.90;;;;;;;;;;5073477;28;20491;-74
2022/09/09 07:09:29;;;;;;;4.70;2.73;;;;;;;;;;5057166;28;20912;-73
2022/09/09 07:11:59;;;;;;;3.37;2.83;;;;;;;;;;5072794;28;20767;-73
2022/09/09 07:14:28;;;;;;;5.50;2.80;;;;;;;;;;5072426;28;20443;-74
2022/09/09 07:17:00;;;;;;;4.50;2.77;;;;;;;;;;5079862;28;20448;-75
2022/09/09 07:22:17;;;;;;;5.73;2.23;;;;;;;;;;5064276;28;21053;-74
2022/09/09 07:24:49;;;;;;;4.93;2.40;;;;;;;;;;5069744;28;20504;-75
2022/09/09 07:27:17;;;;;;;4.20;2.37;;;;;;;;;;5063925;28;20477;-75
2022/09/09 07:29:48;;;;;;;10.23;3.53;;;;;;;;;;5052062;28;20450;-75
2022/09/09 07:32:21;;;;;;;4.70;2.80;;;;;;;;;;5055819;28;20452;-74
2022/09/09 07:34:54;;;;;;;4.47;2.53;;;;;;;;;;5054207;28;20461;-76
2022/09/09 07:37:46;;;;;;;5.10;3.30;;;;;;;;;;5055909;28;20458;-74
2022/09/09 07:40:14;;;;;;;7.30;2.83;;;;;;;;;;5054301;28;20496;-74
2022/09/09 07:42:55;;;;;;;5.10;2.20;;;;;;;;;;5075420;28;20458;-75
2022/09/09 07:45:23;;;;;;;6.10;2.60;;;;;;;;;;5068816;28;20526;-74
2022/09/09 07:47:56;;;;;;;4.30;2.47;;;;;;;;;;5076103;28;20467;-74
2022/09/09 07:53:11;;;;;;;7.20;2.20;;;;;;;;;;5073743;28;20444;-75
2022/09/09 07:55:47;;;;;;;7.90;2.50;;;;;;;;;;5074385;28;20460;-76
2022/09/09 07:58:14;;;;;;;4.30;2.13;;;;;;;;;;5074349;28;20463;-75
2022/09/09 08:00:57;;;;;;;4.60;2.90;;;;;;;;;;5074903;28;20458;-75
2022/09/09 08:03:28;;;;;;;4.80;2.93;;;;;;;;;;5060498;28;20465;-74
2022/09/09 08:06:01;;;;;;;5.73;2.13;;;;;;;;;;5053988;28;20916;-75
2022/09/09 08:08:38;;;;;;;4.63;2.20;;;;;;;;;;5054695;28;20976;-74
2022/09/09 08:11:08;;;;;;;3.50;2.30;;;;;;;;;;5064654;28;20456;-75
2022/09/09 08:13:37;;;;;;;4.10;2.27;;;;;;;;;;5071580;28;20467;-74
2022/09/09 08:16:26;;;;;;;3.17;2.10;;;;;;;;;;5071467;28;20472;-74
2022/09/09 08:18:56;;;;;;;3.03;2.20;;;;;;;;;;5068178;28;20456;-75
2022/09/09 08:21:27;;;;;;;5.43;3.20;;;;;;;;;;5060875;28;20456;-73
2022/09/09 08:24:10;;;;;;;4.33;2.00;;;;;;;;;;5069322;28;20560;-75
2022/09/09 08:27:12;;;;;;;4.37;2.10;;;;;;;;;;5068079;28;20469;-74
2022/09/09 08:29:42;;;;;;;5.50;2.10;;;;;;;;;;5054060;28;20701;-75
2022/09/09 08:32:12;;;;;;;8.40;2.77;;;;;;;;;;5073727;28;20770;-74
2022/09/09 08:34:44;;;;;;;5.53;2.10;;;;;;;;;;5073390;28;20452;-74
2022/09/09 08:37:24;;;;;;;10.13;3.57;;;;;;;;;;5073111;28;20453;-75
2022/09/09 08:40:25;;;;;;;4.90;2.40;;;;;;;;;;5071782;28;20570;-74
2022/09/09 08:42:57;;;;;;;5.07;2.33;;;;;;;;;;5073218;28;20737;-75
2022/09/09 08:48:54;;;;;;;8.63;2.97;;;;;;;;;;5061470;28;20440;-77
2022/09/09 08:51:37;;;;;;;6.50;2.10;;;;;;;;;;5073334;28;20517;-77
2022/09/09 08:54:05;;;;;;;3.20;1.93;;;;;;;;;;5072408;28;20941;-76
2022/09/09 08:56:39;;;;;;;6.10;2.27;;;;;;;;;;5074340;28;20448;-76
2022/09/09 09:02:11;;;;;;;4.13;3.03;;;;;;;;;;5070327;28;20459;-75
2022/09/09 09:04:50;;;;;;;3.70;2.07;;;;;;;;;;5072833;28;20547;-75
2022/09/09 09:07:43;;;;;;;4.27;2.20;;;;;;;;;;5073628;28;21130;-74
2022/09/09 09:10:14;;;;;;;3.40;1.73;;;;;;;;;;5072045;28;20491;-76
2022/09/09 09:12:47;;;;;;;3.33;2.27;;;;;;;;;;5071157;28;20445;-76
2022/09/09 09:15:25;;;;;;;2.97;2.10;;;;;;;;;;5070799;28;20477;-76
2022/09/09 09:17:52;;;;;;;4.80;2.27;;;;;;;;;;5070595;28;20535;-75
2022/09/09 09:20:24;;;;;;;4.00;2.77;;;;;;;;;;5072658;28;20464;-76
2022/09/09 09:23:01;;;;;;;3.97;2.30;;;;;;;;;;5073829;28;20483;-75
2022/09/09 09:34:55;;;;;;;;;;;;;;;;;;;;;
2022/09/09 09:37:47;;;;;;;4.77;2.37;;;;;;;;;;4943594;28;20476;-75
2022/09/09 09:43:09;;;;;;;7.33;2.10;;;;;;;;;;4964629;28;20470;-76
2022/09/09 09:55:38;;;;;;;4.63;1.97;;;;;;;;;;4991308;28;20882;-74
2022/09/09 09:58:16;;;;;;;3.77;1.77;;;;;;;;;;4970366;28;20457;-77
2022/09/09 10:01:00;;;;;;;3.40;2.00;;;;;;;;;;4969209;28;20846;-77
2022/09/09 10:03:50;;;;;;;8.93;3.60;;;;;;;;;;4970465;28;20886;-76
2022/09/09 10:06:41;;;;;;;3.70;1.60;;;;;;;;;;4970545;28;20742;-78
2022/09/09 10:09:55;;;;;;;5.73;1.63;;;;;;;;;;4962695;28;20855;-77
2022/09/09 10:12:57;;;;;;;5.53;3.40;;;;;;;;;;4955121;28;20482;-76
2022/09/09 10:15:39;;;;;;;3.30;1.70;;;;;;;;;;4952060;28;20472;-76
2022/09/09 10:18:15;;;;;;;3.97;2.50;;;;;;;;;;4953208;28;20445;-76
2022/09/09 10:20:46;;;;;;;3.90;2.07;;;;;;;;;;4971881;28;20456;-76
2022/09/09 10:23:37;;;;;;;6.07;1.90;;;;;;;;;;4971316;28;20555;-76
2022/09/09 10:26:24;;;;;;;5.13;1.37;;;;;;;;;;4973352;28;20554;-76
2022/09/09 10:29:25;;;;;;;5.27;2.37;;;;;;;;;;4967635;28;20485;-78
2022/09/09 10:32:10;;;;;;;3.07;1.90;;;;;;;;;;4898488;28;20515;-77
2022/09/09 10:38:13;;;;;;;5.87;3.13;;;;;;;;;;4898263;28;20538;-78
2022/09/09 10:40:53;;;;;;;5.57;2.00;;;;;;;;;;4884953;28;20469;-77
2022/09/09 10:49:46;;;;;;;2.90;1.53;;;;;;;;;;4941933;28;20545;-78
2022/09/09 11:11:06;;;;;;;;;;;;;;;;;;;;;
2022/09/09 11:13:55;;;;;;;;;;;;;;;;;;;;;
2022/09/09 11:19:30;;;;;;;6.83;2.40;;;;;;;;;;4896329;28;20837;-77
2022/09/09 11:22:10;;;;;;;3.60;2.40;;;;;;;;;;4879237;28;20472;-75
2022/09/09 11:24:40;;;;;;;4.37;2.20;;;;;;;;;;4913144;28;20731;-76
2022/09/09 11:27:28;;;;;;;2.20;1.37;;;;;;;;;;4968332;28;20489;-76
2022/09/09 11:30:09;;;;;;;3.77;1.47;;;;;;;;;;4966569;28;20484;-77
2022/09/09 11:33:14;;;;;;;;;;;;;;;;;;;;;
2022/09/09 11:35:50;;;;;;;2.50;1.23;;;;;;;;;;4955214;28;20469;-76
2022/09/09 11:38:26;;;;;;;3.23;1.10;;;;;;;;;;4958304;28;20560;-76
2022/09/09 11:41:24;;;;;;;4.53;1.73;;;;;;;;;;4969666;28;20613;-76
2022/09/09 11:43:56;;;;;;;3.37;1.27;;;;;;;;;;4959881;28;20528;-77
2022/09/09 11:46:42;;;;;;;5.40;1.60;;;;;;;;;;4966342;28;20489;-75
2022/09/09 11:52:38;;;;;;;11.00;3.53;;;;;;;;;;4966449;28;20486;-76
2022/09/09 11:55:20;;;;;;;5.37;1.93;;;;;;;;;;4972371;28;20463;-76
2022/09/09 11:58:01;;;;;;;5.53;2.67;;;;;;;;;;4975349;28;20471;-76
2022/09/09 12:00:40;;;;;;;2.70;1.50;;;;;;;;;;4974024;28;20538;-76
2022/09/09 12:03:33;;;;;;;4.03;1.90;;;;;;;;;;4971277;28;21019;-74
2022/09/09 12:06:16;;;;;;;5.73;2.70;;;;;;;;;;4971741;28;20488;-75
2022/09/09 12:08:52;;;;;;;3.43;1.97;;;;;;;;;;4975067;28;20445;-75
2022/09/09 12:11:35;;;;;;;14.27;2.17;;;;;;;;;;4982048;28;20453;-75
2022/09/09 12:14:08;;;;;;;4.70;2.17;;;;;;;;;;4976320;28;20559;-76
2022/09/09 12:16:39;;;;;;;3.30;2.37;;;;;;;;;;4975757;28;20468;-75
2022/09/09 12:19:14;;;;;;;5.33;2.77;;;;;;;;;;4976639;28;21088;-76
2022/09/09 12:21:45;;;;;;;4.93;2.67;;;;;;;;;;4971262;28;20526;-76
2022/09/09 12:24:15;;;;;;;7.47;2.40;;;;;;;;;;4970333;28;20480;-76
2022/09/09 12:26:53;;;;;;;4.70;2.40;;;;;;;;;;4972481;28;20481;-77
2022/09/09 12:29:29;;;;;;;3.90;2.10;;;;;;;;;;4972919;28;20568;-75
2022/09/09 12:32:15;;;;;;;4.30;1.83;;;;;;;;;;4968807;28;20468;-76
2022/09/09 12:34:47;;;;;;;4.77;2.00;;;;;;;;;;4960689;28;20505;-76
2022/09/09 12:40:23;;;;;;;3.20;2.10;;;;;;;;;;4959476;28;20461;-76
2022/09/09 12:42:51;;;;;;;38.90;24.93;;;;;;;;;;4973237;28;20471;-76
2022/09/09 12:48:49;;;;;;;5.40;3.30;;;;;;;;;;4974724;28;20445;-77
2022/09/09 12:51:30;;;;;;;7.93;2.40;;;;;;;;;;4976912;28;20469;-77
2022/09/09 12:54:00;;;;;;;6.40;1.90;;;;;;;;;;4970166;28;20472;-77
2022/09/09 12:59:46;;;;;;;4.17;2.70;;;;;;;;;;4979493;28;20691;-78
2022/09/09 13:02:53;;;;;;;4.60;1.90;;;;;;;;;;4975888;28;20884;-78
2022/09/09 13:11:56;;;;;;;3.93;1.37;;;;;;;;;;4995313;28;20575;-78
2022/09/09 13:17:35;;;;;;;4.47;1.83;;;;;;;;;;4983192;28;20497;-78
2022/09/09 13:20:24;;;;;;;5.63;2.00;;;;;;;;;;4978850;28;20460;-77
2022/09/09 13:26:11;;;;;;;5.30;2.40;;;;;;;;;;4965028;28;20469;-78
2022/09/09 13:37:27;;;;;;;8.07;3.17;;;;;;;;;;4974292;28;20473;-76
2022/09/09 13:39:56;;;;;;;4.00;2.40;;;;;;;;;;4955790;28;20494;-77
2022/09/09 13:42:26;;;;;;;4.67;1.87;;;;;;;;;;4952257;28;20464;-76
2022/09/09 13:44:56;;;;;;;5.47;2.60;;;;;;;;;;4973220;28;20661;-76
2022/09/09 13:47:30;;;;;;;4.77;1.73;;;;;;;;;;4988520;28;20584;-75
2022/09/09 13:49:58;;;;;;;4.30;2.27;;;;;;;;;;4970586;28;20452;-77
2022/09/09 13:52:31;;;;;;;4.20;2.40;;;;;;;;;;4967797;28;20565;-76
2022/09/09 13:54:59;;;;;;;3.20;1.70;;;;;;;;;;4959649;28;20647;-75
2022/09/09 13:57:27;;;;;;;2.23;1.73;;;;;;;;;;4969984;28;20469;-77
2022/09/09 13:59:58;;;;;;;3.53;2.10;;;;;;;;;;4970977;28;20465;-78
2022/09/09 14:02:26;;;;;;;2.87;2.03;;;;;;;;;;4972052;28;21094;-76
2022/09/09 14:04:58;;;;;;;2.87;1.37;;;;;;;;;;4972222;28;20476;-76
2022/09/09 14:07:31;;;;;;;3.30;1.10;;;;;;;;;;4971129;28;20485;-76
2022/09/09 14:10:11;;;;;;;4.50;1.40;;;;;;;;;;4967212;28;20454;-75
2022/09/09 14:12:38;;;;;;;2.87;1.00;;;;;;;;;;4977506;28;20774;-75
2022/09/09 14:15:14;;;;;;;4.17;2.07;;;;;;;;;;4969556;28;21027;-76
2022/09/09 14:17:54;;;;;;;4.37;2.43;;;;;;;;;;4971051;28;20812;-76
2022/09/09 14:20:22;;;;;;;3.20;1.30;;;;;;;;;;4970892;28;20564;-76
2022/09/09 14:22:58;;;;;;;9.60;1.60;;;;;;;;;;4972854;28;20465;-75
2022/09/09 14:25:27;;;;;;;5.00;1.27;;;;;;;;;;4968201;28;20465;-76
2022/09/09 14:27:57;;;;;;;3.00;1.73;;;;;;;;;;4971161;28;20497;-76
2022/09/09 14:30:27;;;;;;;4.73;1.40;;;;;;;;;;4970739;28;20473;-77
2022/09/09 14:32:55;;;;;;;2.43;0.80;;;;;;;;;;4970942;28;20763;-76
2022/09/09 14:35:22;;;;;;;12.67;11.20;;;;;;;;;;4972037;28;20446;-76
2022/09/09 14:37:53;;;;;;;6.20;1.30;;;;;;;;;;4970281;28;20483;-76
2022/09/09 14:40:22;;;;;;;3.07;0.90;;;;;;;;;;4970431;28;20453;-76
2022/09/09 14:43:11;;;;;;;7.70;2.53;;;;;;;;;;4961561;28;20473;-77
2022/09/09 14:45:48;;;;;;;2.43;1.63;;;;;;;;;;4968560;28;20842;-77
2022/09/09 14:48:17;;;;;;;2.27;1.33;;;;;;;;;;4969237;28;20485;-77
2022/09/09 14:50:49;;;;;;;2.07;0.80;;;;;;;;;;4970367;28;20510;-76
2022/09/09 14:53:23;;;;;;;3.10;1.57;;;;;;;;;;4960864;28;20542;-76
2022/09/09 14:55:51;;;;;;;3.00;1.27;;;;;;;;;;4948078;28;20496;-75
2022/09/09 14:58:20;;;;;;;4.30;1.70;;;;;;;;;;4943071;28;20772;-75
2022/09/09 15:00:51;;;;;;;3.87;1.70;;;;;;;;;;4948401;28;20458;-75
2022/09/09 15:03:18;;;;;;;4.57;2.00;;;;;;;;;;4948267;28;20472;-75
2022/09/09 15:05:48;;;;;;;11.60;6.97;;;;;;;;;;4947268;28;20442;-74
2022/09/09 15:08:17;;;;;;;4.60;2.97;;;;;;;;;;4957132;28;20521;-74
2022/09/09 15:10:58;;;;;;;7.73;1.93;;;;;;;;;;4960142;28;20497;-76
2022/09/09 15:13:27;;;;;;;2.37;1.33;;;;;;;;;;4950099;28;20567;-74
2022/09/09 15:15:57;;;;;;;2.40;1.47;;;;;;;;;;4969557;28;20542;-76
2022/09/09 15:18:25;;;;;;;5.90;2.00;;;;;;;;;;4967789;28;20942;-74
2022/09/09 15:20:53;;;;;;;2.90;1.93;;;;;;;;;;4968191;28;20505;-74
2022/09/09 15:23:20;;;;;;;3.30;2.20;;;;;;;;;;4968341;28;20916;-75
2022/09/09 15:25:56;;;;;;;3.73;1.87;;;;;;;;;;4973107;28;20477;-74
2022/09/09 15:28:44;;;;;;;3.60;1.80;;;;;;;;;;4959549;28;20753;-74
2022/09/09 15:31:23;;;;;;;3.90;2.03;;;;;;;;;;4963474;28;20465;-76
2022/09/09 15:34:00;;;;;;;4.40;2.10;;;;;;;;;;4965175;28;20472;-76
2022/09/09 15:36:30;;;;;;;3.40;1.40;;;;;;;;;;4964616;28;21105;-75
2022/09/09 15:39:01;;;;;;;3.37;2.80;;;;;;;;;;5005252;28;20451;-76
2022/09/09 15:41:35;;;;;;;4.30;2.20;;;;;;;;;;5071519;28;20480;-76
2022/09/09 15:44:11;;;;;;;4.10;1.70;;;;;;;;;;5003155;28;20539;-76
2022/09/09 15:46:47;;;;;;;3.40;2.10;;;;;;;;;;4968572;28;20485;-76
2022/09/09 15:49:15;;;;;;;3.27;2.00;;;;;;;;;;4972109;28;20453;-76
2022/09/09 15:54:43;;;;;;;6.10;2.80;;;;;;;;;;4970419;28;20500;-76
2022/09/09 15:57:15;;;;;;;7.13;3.70;;;;;;;;;;4968418;28;20449;-75
2022/09/09 15:59:49;;;;;;;3.53;2.47;;;;;;;;;;4977246;28;20484;-76
2022/09/09 16:02:18;;;;;;;5.57;2.83;;;;;;;;;;4973645;28;20454;-76
2022/09/09 16:04:48;;;;;;;9.17;3.73;;;;;;;;;;4975410;28;20471;-76
2022/09/09 16:07:17;;;;;;;5.50;2.40;;;;;;;;;;4987167;28;20480;-74
2022/09/09 16:09:45;;;;;;;5.07;2.90;;;;;;;;;;4990466;28;20506;-76
2022/09/09 16:12:14;;;;;;;4.00;2.47;;;;;;;;;;4982893;28;21680;-76
2022/09/09 16:14:51;;;;;;;8.60;4.20;;;;;;;;;;4971877;28;20468;-76
2022/09/09 16:17:37;;;;;;;5.77;3.13;;;;;;;;;;4978745;28;20459;-77
2022/09/09 16:20:08;;;;;;;5.57;2.90;;;;;;;;;;5047873;28;20499;-77
2022/09/09 16:22:53;;;;;;;8.73;5.70;;;;;;;;;;4973990;28;20453;-76
2022/09/09 16:25:37;;;;;;;;;;;;;;;;;;;;;
2022/09/09 16:28:11;;;;;;;6.80;4.60;;;;;;;;;;5072482;28;20902;-76
2022/09/09 16:30:40;;;;;;;6.97;3.90;;;;;;;;;;5050257;28;20557;-76
2022/09/09 16:33:14;;;;;;;8.17;3.53;;;;;;;;;;4971075;28;20499;-75
2022/09/09 16:35:43;;;;;;;4.53;2.83;;;;;;;;;;4979786;28;20838;-76
2022/09/09 16:38:12;;;;;;;6.03;2.53;;;;;;;;;;4972375;28;20560;-75
2022/09/09 16:40:53;;;;;;;11.13;6.67;;;;;;;;;;4977520;28;20514;-75
2022/09/09 16:43:47;;;;;;;3.03;2.40;;;;;;;;;;4978073;28;20502;-75
2022/09/09 16:46:21;;;;;;;6.97;2.70;;;;;;;;;;4979167;28;20457;-75
2022/09/09 16:48:56;;;;;;;7.97;3.40;;;;;;;;;;4991554;28;20462;-75
2022/09/09 16:51:26;;;;;;;6.87;2.97;;;;;;;;;;4989618;28;20460;-75
2022/09/09 16:54:16;;;;;;;14.00;5.47;;;;;;;;;;4996328;28;20530;-75
2022/09/09 16:56:47;;;;;;;6.03;3.80;;;;;;;;;;4986983;28;20469;-75
2022/09/09 16:59:24;;;;;;;7.63;4.13;;;;;;;;;;4995701;28;20463;-77
2022/09/09 17:01:57;;;;;;;5.37;3.07;;;;;;;;;;4994957;28;20444;-76
2022/09/09 17:04:27;;;;;;;7.47;3.97;;;;;;;;;;4994168;28;21031;-75
2022/09/09 17:07:00;;;;;;;13.37;7.90;;;;;;;;;;4993590;28;20504;-76
2022/09/09 17:09:33;;;;;;;6.10;4.53;;;;;;;;;;4992069;28;20528;-77
2022/09/09 17:12:06;;;;;;;9.10;4.60;;;;;;;;;;4993493;28;20464;-75
2022/09/09 17:14:36;;;;;;;12.77;6.43;;;;;;;;;;4992338;28;20456;-76